createdAt,value
2022-09-02T00:00:58.731Z,953.89
2022-09-02T00:01:58.819Z,953.89
2022-09-02T00:02:58.855Z,953.86
2022-09-02T00:03:58.687Z,953.87
2022-09-02T00:04:58.708Z,953.84
2022-09-02T00:05:58.682Z,953.91
2022-09-02T00:06:58.682Z,953.86
2022-09-02T00:07:58.658Z,953.81
2022-09-02T00:08:58.647Z,953.84
2022-09-02T00:09:58.611Z,953.85
2022-09-02T00:10:58.613Z,953.84
2022-09-02T00:11:58.609Z,953.84
2022-09-02T00:12:58.613Z,953.84
2022-09-02T00:13:58.559Z,953.82
2022-09-02T00:14:58.563Z,953.84
2022-09-02T00:15:58.534Z,953.85
2022-09-02T00:16:58.630Z,953.82
2022-09-02T00:17:59.070Z,953.80
2022-09-02T00:18:58.525Z,953.78
2022-09-02T00:19:58.484Z,953.80
2022-09-02T00:20:58.505Z,953.80
2022-09-02T00:21:58.451Z,953.81
2022-09-02T00:22:58.441Z,953.81
2022-09-02T00:23:58.453Z,953.78
2022-09-02T00:24:58.423Z,953.79
2022-09-02T00:25:58.397Z,953.76
2022-09-02T00:26:58.387Z,953.75
2022-09-02T00:27:58.394Z,953.71
2022-09-02T00:28:58.358Z,953.75
2022-09-02T00:29:58.376Z,953.73
2022-09-02T00:30:58.338Z,953.69
2022-09-02T00:31:58.419Z,953.70
2022-09-02T00:32:58.312Z,953.67
2022-09-02T00:33:58.317Z,953.68
2022-09-02T00:34:58.327Z,953.71
2022-09-02T00:35:58.303Z,953.67
2022-09-02T00:36:58.256Z,953.64
2022-09-02T00:37:58.239Z,953.69
2022-09-02T00:38:58.230Z,953.65
2022-09-02T00:39:58.260Z,953.69
2022-09-02T00:40:58.201Z,953.67
2022-09-02T00:41:58.187Z,953.68
2022-09-02T00:42:58.176Z,953.64
2022-09-02T00:43:58.166Z,953.66
2022-09-02T00:44:58.181Z,953.67
2022-09-02T00:45:58.206Z,953.66
2022-09-02T00:46:58.123Z,953.67
2022-09-02T00:47:58.153Z,953.65
2022-09-02T00:48:58.116Z,953.67
2022-09-02T00:49:58.081Z,953.69
2022-09-02T00:50:58.090Z,953.64
2022-09-02T00:51:58.112Z,953.65
2022-09-02T00:52:58.045Z,953.64
2022-09-02T00:53:58.049Z,953.66
2022-09-02T00:54:58.014Z,953.67
2022-09-02T00:55:58.027Z,953.61
2022-09-02T00:56:58.007Z,953.67
2022-09-02T00:57:57.975Z,953.67
2022-09-02T00:58:57.959Z,953.69
2022-09-02T00:59:57.944Z,953.64
2022-09-02T01:00:58.089Z,953.66
2022-09-02T01:01:58.085Z,953.62
2022-09-02T01:02:57.949Z,953.64
2022-09-02T01:03:57.904Z,953.64
2022-09-02T01:04:57.876Z,953.64
2022-09-02T01:05:57.882Z,953.61
2022-09-02T01:06:57.961Z,953.64
2022-09-02T01:07:57.859Z,953.67
2022-09-02T01:08:57.850Z,953.65
2022-09-02T01:09:57.824Z,953.64
2022-09-02T01:10:57.804Z,953.65
2022-09-02T01:11:57.776Z,953.63
2022-09-02T01:12:57.777Z,953.64
2022-09-02T01:13:57.782Z,953.63
2022-09-02T01:14:57.750Z,953.65
2022-09-02T01:15:57.811Z,953.66
2022-09-02T01:16:57.780Z,953.66
2022-09-02T01:17:57.706Z,953.65
2022-09-02T01:18:57.755Z,953.69
2022-09-02T01:19:57.676Z,953.65
2022-09-02T01:20:57.668Z,953.65
2022-09-02T01:21:57.675Z,953.68
2022-09-02T01:22:57.640Z,953.64
2022-09-02T01:23:57.623Z,953.65
2022-09-02T01:24:57.613Z,953.66
2022-09-02T01:25:57.630Z,953.65
2022-09-02T01:26:57.581Z,953.66
2022-09-02T01:27:57.573Z,953.65
2022-09-02T01:28:57.563Z,953.62
2022-09-02T01:29:57.645Z,953.62
2022-09-02T01:30:57.559Z,953.61
2022-09-02T01:31:57.595Z,953.61
2022-09-02T01:32:57.531Z,953.62
2022-09-02T01:33:57.490Z,953.65
2022-09-02T01:34:57.479Z,953.61
2022-09-02T01:35:57.500Z,953.63
2022-09-02T01:36:57.451Z,953.63
2022-09-02T01:37:57.479Z,953.62
2022-09-02T01:38:57.424Z,953.62
2022-09-02T01:39:57.413Z,953.59
2022-09-02T01:40:57.426Z,953.58
2022-09-02T01:41:57.421Z,953.60
2022-09-02T01:42:57.374Z,953.59
2022-09-02T01:43:57.351Z,953.57
2022-09-02T01:44:57.353Z,953.55
2022-09-02T01:45:57.339Z,953.57
2022-09-02T01:46:57.354Z,953.54
2022-09-02T01:47:57.376Z,953.56
2022-09-02T01:48:57.298Z,953.53
2022-09-02T01:49:57.273Z,953.51
2022-09-02T01:50:57.265Z,953.48
2022-09-02T01:51:57.280Z,953.55
2022-09-02T01:52:57.250Z,953.53
2022-09-02T01:53:57.222Z,953.49
2022-09-02T01:54:57.252Z,953.46
2022-09-02T01:55:57.194Z,953.48
2022-09-02T01:56:57.183Z,953.49
2022-09-02T01:57:57.170Z,953.45
2022-09-02T01:58:57.155Z,953.46
2022-09-02T01:59:57.181Z,953.42
2022-09-02T02:00:57.169Z,953.39
2022-09-02T02:01:57.150Z,953.43
2022-09-02T02:02:57.198Z,953.43
2022-09-02T02:03:57.096Z,953.43
2022-09-02T02:04:57.074Z,953.43
2022-09-02T02:05:57.109Z,953.43
2022-09-02T02:06:57.052Z,953.40
2022-09-02T02:07:57.073Z,953.42
2022-09-02T02:08:57.102Z,953.43
2022-09-02T02:09:57.008Z,953.41
2022-09-02T02:10:57.012Z,953.42
2022-09-02T02:11:56.978Z,953.45
2022-09-02T02:12:57.008Z,953.44
2022-09-02T02:13:56.957Z,953.42
2022-09-02T02:14:56.949Z,953.39
2022-09-02T02:15:57.002Z,953.41
2022-09-02T02:16:56.923Z,953.39
2022-09-02T02:17:56.939Z,953.36
2022-09-02T02:18:56.916Z,953.38
2022-09-02T02:19:56.885Z,953.35
2022-09-02T02:20:56.875Z,953.36
2022-09-02T02:21:56.858Z,953.38
2022-09-02T02:22:56.875Z,953.38
2022-09-02T02:23:56.819Z,953.34
2022-09-02T02:24:56.815Z,953.34
2022-09-02T02:25:56.792Z,953.37
2022-09-02T02:26:56.800Z,953.34
2022-09-02T02:27:56.803Z,953.33
2022-09-02T02:28:56.764Z,953.34
2022-09-02T02:29:56.744Z,953.33
2022-09-02T02:30:56.780Z,953.31
2022-09-02T02:31:56.717Z,953.31
2022-09-02T02:32:56.707Z,953.31
2022-09-02T02:33:56.725Z,953.30
2022-09-02T02:34:56.712Z,953.34
2022-09-02T02:35:56.683Z,953.29
2022-09-02T02:36:56.664Z,953.34
2022-09-02T02:37:56.639Z,953.33
2022-09-02T02:38:56.643Z,953.32
2022-09-02T02:39:56.612Z,953.33
2022-09-02T02:40:56.618Z,953.34
2022-09-02T02:41:56.590Z,953.34
2022-09-02T02:42:56.569Z,953.27
2022-09-02T02:43:56.585Z,953.28
2022-09-02T02:44:56.548Z,953.29
2022-09-02T02:45:56.525Z,953.31
2022-09-02T02:46:56.606Z,953.33
2022-09-02T02:47:56.502Z,953.26
2022-09-02T02:48:56.516Z,953.24
2022-09-02T02:49:56.476Z,953.29
2022-09-02T02:50:56.460Z,953.25
2022-09-02T02:51:56.442Z,953.23
2022-09-02T02:52:56.465Z,953.23
2022-09-02T02:53:58.879Z,953.27
2022-09-02T02:54:56.411Z,953.25
2022-09-02T02:55:56.416Z,953.23
2022-09-02T02:56:56.377Z,953.28
2022-09-02T02:57:56.375Z,953.23
2022-09-02T02:58:56.406Z,953.26
2022-09-02T02:59:56.340Z,953.22
2022-09-02T03:00:56.382Z,953.30
2022-09-02T03:01:56.507Z,953.26
2022-09-02T03:02:56.392Z,953.27
2022-09-02T03:03:56.301Z,953.24
2022-09-02T03:04:56.292Z,953.27
2022-09-02T03:05:56.286Z,953.32
2022-09-02T03:06:56.269Z,953.30
2022-09-02T03:07:56.240Z,953.26
2022-09-02T03:08:56.253Z,953.27
2022-09-02T03:09:56.235Z,953.30
2022-09-02T03:10:56.200Z,953.22
2022-09-02T03:11:56.194Z,953.30
2022-09-02T03:12:56.175Z,953.25
2022-09-02T03:13:56.160Z,953.28
2022-09-02T03:14:56.157Z,953.26
2022-09-02T03:15:56.280Z,953.23
2022-09-02T03:16:56.151Z,953.20
2022-09-02T03:17:56.102Z,953.25
2022-09-02T03:18:56.110Z,953.18
2022-09-02T03:19:56.074Z,953.21
2022-09-02T03:20:56.090Z,953.20
2022-09-02T03:21:56.064Z,953.17
2022-09-02T03:22:56.031Z,953.19
2022-09-02T03:23:56.058Z,953.16
2022-09-02T03:24:56.004Z,953.19
2022-09-02T03:25:56.004Z,953.19
2022-09-02T03:26:56.007Z,953.15
2022-09-02T03:27:55.974Z,953.14
2022-09-02T03:28:55.970Z,953.16
2022-09-02T03:29:55.935Z,953.14
2022-09-02T03:30:55.994Z,953.14
2022-09-02T03:31:55.957Z,953.13
2022-09-02T03:32:58.399Z,953.07
2022-09-02T03:33:55.891Z,953.06
2022-09-02T03:34:55.871Z,953.05
2022-09-02T03:35:55.862Z,953.06
2022-09-02T03:36:55.883Z,953.08
2022-09-02T03:37:55.837Z,953.07
2022-09-02T03:38:55.832Z,953.04
2022-09-02T03:39:55.808Z,953.03
2022-09-02T03:40:55.802Z,953.05
2022-09-02T03:41:55.804Z,953.03
2022-09-02T03:42:59.935Z,952.98
2022-09-02T03:43:55.775Z,953.02
2022-09-02T03:44:55.747Z,952.96
2022-09-02T03:45:55.810Z,953.03
2022-09-02T03:46:55.745Z,953.02
2022-09-02T03:47:55.714Z,953.03
2022-09-02T03:48:55.719Z,953.02
2022-09-02T03:49:55.698Z,953.03
2022-09-02T03:50:55.668Z,953.04
2022-09-02T03:51:55.671Z,953.07
2022-09-02T03:52:55.643Z,953.06
2022-09-02T03:53:55.652Z,953.06
2022-09-02T03:54:55.608Z,953.04
2022-09-02T03:55:55.601Z,953.04
2022-09-02T03:56:55.602Z,953.01
2022-09-02T03:57:55.574Z,953.02
2022-09-02T03:58:55.551Z,953.04
2022-09-02T03:59:55.547Z,953.01
2022-09-02T04:00:55.531Z,953.00
2022-09-02T04:01:55.678Z,952.99
2022-09-02T04:02:55.556Z,953.01
2022-09-02T04:03:55.517Z,953.00
2022-09-02T04:04:55.472Z,952.97
2022-09-02T04:05:55.462Z,952.99
2022-09-02T04:06:55.435Z,952.97
2022-09-02T04:07:55.462Z,952.96
2022-09-02T04:08:55.421Z,952.98
2022-09-02T04:09:55.406Z,952.99
2022-09-02T04:10:55.391Z,952.99
2022-09-02T04:11:55.404Z,952.97
2022-09-02T04:12:55.392Z,953.01
2022-09-02T04:13:55.358Z,953.01
2022-09-02T04:14:57.627Z,952.97
2022-09-02T04:15:58.617Z,953.02
2022-09-02T04:16:55.339Z,952.99
2022-09-02T04:17:55.301Z,953.00
2022-09-02T04:18:55.289Z,952.98
2022-09-02T04:19:55.306Z,952.96
2022-09-02T04:20:55.259Z,952.98
2022-09-02T04:21:55.280Z,952.98
2022-09-02T04:22:55.231Z,953.00
2022-09-02T04:23:55.232Z,953.02
2022-09-02T04:24:55.206Z,953.01
2022-09-02T04:25:55.208Z,953.02
2022-09-02T04:26:55.199Z,953.02
2022-09-02T04:27:55.165Z,953.02
2022-09-02T04:28:55.162Z,953.03
2022-09-02T04:29:55.170Z,953.02
2022-09-02T04:30:55.227Z,953.04
2022-09-02T04:31:55.146Z,953.04
2022-09-02T04:32:55.114Z,952.99
2022-09-02T04:33:55.079Z,953.02
2022-09-02T04:34:55.072Z,953.03
2022-09-02T04:35:55.065Z,953.02
2022-09-02T04:36:55.073Z,953.01
2022-09-02T04:37:55.058Z,953.01
2022-09-02T04:38:55.033Z,953.00
2022-09-02T04:39:55.029Z,952.97
2022-09-02T04:40:55.046Z,952.94
2022-09-02T04:41:55.002Z,952.99
2022-09-02T04:42:55.311Z,952.97
2022-09-02T04:43:55.000Z,952.99
2022-09-02T04:44:55.000Z,952.96
2022-09-02T04:45:54.972Z,952.97
2022-09-02T04:46:54.912Z,952.99
2022-09-02T04:47:54.938Z,952.98
2022-09-02T04:48:54.888Z,952.96
2022-09-02T04:49:54.904Z,953.00
2022-09-02T04:50:54.892Z,952.98
2022-09-02T04:51:54.868Z,952.96
2022-09-02T04:52:54.832Z,952.96
2022-09-02T04:53:54.839Z,952.96
2022-09-02T04:54:54.835Z,952.97
2022-09-02T04:55:57.951Z,952.96
2022-09-02T04:56:54.778Z,952.99
2022-09-02T04:57:54.765Z,952.99
2022-09-02T04:58:54.749Z,952.97
2022-09-02T04:59:54.768Z,953.00
2022-09-02T05:00:54.723Z,952.99
2022-09-02T05:01:54.900Z,953.04
2022-09-02T05:02:54.811Z,952.97
2022-09-02T05:03:54.690Z,953.02
2022-09-02T05:04:54.667Z,952.94
2022-09-02T05:05:54.688Z,952.98
2022-09-02T05:06:54.649Z,952.94
2022-09-02T05:07:54.629Z,952.99
2022-09-02T05:08:54.617Z,952.99
2022-09-02T05:09:54.611Z,953.00
2022-09-02T05:10:54.594Z,953.02
2022-09-02T05:11:54.604Z,952.98
2022-09-02T05:12:54.636Z,953.01
2022-09-02T05:13:54.559Z,953.02
2022-09-02T05:14:54.562Z,953.00
2022-09-02T05:15:54.583Z,952.99
2022-09-02T05:16:54.529Z,952.99
2022-09-02T05:17:54.498Z,952.97
2022-09-02T05:18:54.507Z,953.01
2022-09-02T05:19:54.469Z,952.95
2022-09-02T05:20:54.459Z,952.99
2022-09-02T05:21:54.505Z,952.97
2022-09-02T05:22:54.464Z,952.93
2022-09-02T05:23:54.689Z,952.98
2022-09-02T05:24:54.396Z,952.97
2022-09-02T05:25:54.390Z,953.01
2022-09-02T05:26:54.419Z,952.97
2022-09-02T05:27:54.391Z,952.98
2022-09-02T05:28:54.351Z,952.99
2022-09-02T05:29:54.355Z,952.96
2022-09-02T05:30:54.369Z,952.98
2022-09-02T05:31:54.313Z,952.96
2022-09-02T05:32:54.322Z,952.98
2022-09-02T05:33:54.288Z,952.96
2022-09-02T05:34:54.278Z,952.95
2022-09-02T05:35:54.269Z,952.98
2022-09-02T05:36:54.239Z,952.99
2022-09-02T05:37:57.479Z,952.99
2022-09-02T05:38:54.258Z,952.98
2022-09-02T05:39:54.224Z,952.95
2022-09-02T05:40:54.243Z,952.95
2022-09-02T05:41:54.180Z,952.98
2022-09-02T05:42:54.159Z,952.97
2022-09-02T05:43:54.150Z,953.01
2022-09-02T05:44:54.161Z,952.95
2022-09-02T05:45:54.185Z,952.94
2022-09-02T05:46:54.106Z,952.98
2022-09-02T05:47:54.109Z,952.95
2022-09-02T05:48:54.084Z,952.90
2022-09-02T05:49:54.099Z,952.89
2022-09-02T05:50:54.902Z,952.91
2022-09-02T05:51:54.040Z,952.91
2022-09-02T05:52:54.058Z,952.91
2022-09-02T05:53:54.019Z,952.89
2022-09-02T05:54:54.002Z,952.92
2022-09-02T05:55:53.997Z,952.91
2022-09-02T05:56:53.973Z,952.93
2022-09-02T05:57:54.011Z,952.94
2022-09-02T05:58:53.955Z,952.93
2022-09-02T05:59:53.934Z,952.94
2022-09-02T06:00:53.924Z,952.91
2022-09-02T06:01:54.066Z,952.95
2022-09-02T06:02:54.018Z,952.95
2022-09-02T06:03:53.881Z,952.94
2022-09-02T06:04:53.865Z,952.94
2022-09-02T06:05:53.859Z,952.91
2022-09-02T06:06:53.837Z,952.91
2022-09-02T06:07:53.830Z,952.89
2022-09-02T06:08:53.836Z,952.94
2022-09-02T06:09:53.799Z,952.91
2022-09-02T06:10:53.833Z,952.83
2022-09-02T06:11:53.798Z,952.86
2022-09-02T06:12:53.755Z,952.86
2022-09-02T06:13:53.750Z,952.82
2022-09-02T06:14:53.738Z,952.82
2022-09-02T06:15:53.825Z,952.78
2022-09-02T06:16:53.728Z,952.79
2022-09-02T06:17:53.697Z,952.72
2022-09-02T06:18:53.693Z,952.72
2022-09-02T06:19:53.779Z,952.76
2022-09-02T06:20:53.679Z,952.75
2022-09-02T06:21:53.683Z,952.72
2022-09-02T06:22:53.624Z,952.72
2022-09-02T06:23:53.642Z,952.67
2022-09-02T06:24:53.726Z,952.66
2022-09-02T06:25:53.601Z,952.67
2022-09-02T06:26:54.568Z,952.68
2022-09-02T06:27:53.565Z,952.65
2022-09-02T06:28:53.550Z,952.67
2022-09-02T06:29:53.531Z,952.68
2022-09-02T06:30:53.659Z,952.64
2022-09-02T06:31:53.527Z,952.63
2022-09-02T06:32:53.489Z,952.64
2022-09-02T06:33:53.479Z,952.63
2022-09-02T06:34:53.492Z,952.67
2022-09-02T06:35:53.458Z,952.65
2022-09-02T06:36:53.460Z,952.66
2022-09-02T06:37:53.432Z,952.66
2022-09-02T06:38:53.415Z,952.69
2022-09-02T06:39:53.417Z,952.65
2022-09-02T06:40:53.449Z,952.65
2022-09-02T06:41:53.372Z,952.63
2022-09-02T06:42:53.355Z,952.65
2022-09-02T06:43:53.373Z,952.58
2022-09-02T06:44:53.327Z,952.62
2022-09-02T06:45:53.430Z,952.57
2022-09-02T06:46:54.369Z,952.65
2022-09-02T06:47:53.295Z,952.65
2022-09-02T06:48:53.309Z,952.62
2022-09-02T06:49:53.269Z,952.62
2022-09-02T06:50:53.250Z,952.60
2022-09-02T06:51:53.245Z,952.61
2022-09-02T06:52:53.225Z,952.60
2022-09-02T06:53:53.247Z,952.61
2022-09-02T06:54:53.204Z,952.57
2022-09-02T06:55:53.189Z,952.56
2022-09-02T06:56:53.198Z,952.51
2022-09-02T06:57:53.171Z,952.52
2022-09-02T06:58:53.145Z,952.50
2022-09-02T06:59:53.133Z,952.50
2022-09-02T07:00:53.157Z,952.50
2022-09-02T07:01:53.432Z,952.48
2022-09-02T07:02:53.119Z,952.52
2022-09-02T07:03:53.098Z,952.48
2022-09-02T07:04:55.618Z,952.43
2022-09-02T07:05:53.059Z,952.46
2022-09-02T07:06:53.052Z,952.44
2022-09-02T07:07:53.057Z,952.42
2022-09-02T07:08:53.020Z,952.48
2022-09-02T07:09:53.005Z,952.45
2022-09-02T07:10:52.992Z,952.48
2022-09-02T07:11:52.982Z,952.42
2022-09-02T07:12:52.985Z,952.46
2022-09-02T07:13:53.165Z,952.44
2022-09-02T07:14:52.938Z,952.49
2022-09-02T07:15:52.931Z,952.45
2022-09-02T07:16:52.985Z,952.47
2022-09-02T07:17:52.908Z,952.48
2022-09-02T07:18:52.915Z,952.45
2022-09-02T07:19:52.868Z,952.45
2022-09-02T07:20:52.886Z,952.47
2022-09-02T07:21:52.848Z,952.45
2022-09-02T07:22:52.877Z,952.47
2022-09-02T07:23:52.815Z,952.53
2022-09-02T07:24:52.809Z,952.53
2022-09-02T07:25:52.816Z,952.48
2022-09-02T07:26:55.339Z,952.48
2022-09-02T07:27:52.762Z,952.51
2022-09-02T07:28:52.754Z,952.51
2022-09-02T07:29:52.747Z,952.49
2022-09-02T07:30:55.343Z,952.55
2022-09-02T07:31:52.757Z,952.54
2022-09-02T07:32:52.737Z,952.53
2022-09-02T07:33:52.681Z,952.55
2022-09-02T07:34:52.698Z,952.51
2022-09-02T07:35:52.660Z,952.52
2022-09-02T07:36:52.657Z,952.50
2022-09-02T07:37:52.646Z,952.53
2022-09-02T07:38:52.625Z,952.50
2022-09-02T07:39:52.612Z,952.50
2022-09-02T07:40:57.083Z,952.49
2022-09-02T07:41:52.587Z,952.52
2022-09-02T07:42:52.633Z,952.51
2022-09-02T07:43:55.272Z,952.56
2022-09-02T07:44:52.550Z,952.55
2022-09-02T07:45:52.551Z,952.56
2022-09-02T07:46:52.528Z,952.56
2022-09-02T07:47:52.519Z,952.57
2022-09-02T07:48:52.514Z,952.60
2022-09-02T07:50:52.466Z,952.62
2022-09-02T07:51:52.460Z,952.58
2022-09-02T07:52:52.457Z,952.59
2022-09-02T07:53:52.414Z,952.57
2022-09-02T07:54:52.410Z,952.57
2022-09-02T07:55:52.387Z,952.59
2022-09-02T07:56:52.374Z,952.56
2022-09-02T07:57:52.495Z,952.58
2022-09-02T07:58:52.379Z,952.60
2022-09-02T07:59:52.341Z,952.59
2022-09-02T08:00:52.448Z,952.56
2022-09-02T08:01:52.312Z,952.57
2022-09-02T08:02:52.497Z,952.59
2022-09-02T08:03:52.306Z,952.57
2022-09-02T08:04:52.277Z,952.59
2022-09-02T08:05:52.259Z,952.61
2022-09-02T08:06:52.245Z,952.59
2022-09-02T08:07:52.225Z,952.60
2022-09-02T08:08:52.254Z,952.60
2022-09-02T08:09:52.199Z,952.62
2022-09-02T08:10:52.326Z,952.61
2022-09-02T08:11:52.186Z,952.62
2022-09-02T08:12:52.169Z,952.63
2022-09-02T08:13:52.180Z,952.61
2022-09-02T08:14:52.145Z,952.58
2022-09-02T08:15:52.151Z,952.61
2022-09-02T08:16:52.187Z,952.57
2022-09-02T08:17:52.125Z,952.57
2022-09-02T08:18:52.082Z,952.58
2022-09-02T08:19:52.084Z,952.56
2022-09-02T08:20:52.065Z,952.54
2022-09-02T08:21:52.088Z,952.58
2022-09-02T08:23:00.976Z,952.58
2022-09-02T08:23:52.022Z,952.54
2022-09-02T08:24:52.029Z,952.54
2022-09-02T08:25:51.984Z,952.54
2022-09-02T08:26:51.986Z,952.49
2022-09-02T08:27:52.025Z,952.56
2022-09-02T08:28:51.953Z,952.51
2022-09-02T08:29:51.955Z,952.53
2022-09-02T08:30:51.922Z,952.55
2022-09-02T08:31:54.041Z,952.53
2022-09-02T08:32:51.906Z,952.52
2022-09-02T08:33:51.908Z,952.50
2022-09-02T08:34:51.868Z,952.50
2022-09-02T08:35:51.853Z,952.52
2022-09-02T08:36:56.279Z,952.52
2022-09-02T08:37:51.830Z,952.52
2022-09-02T08:38:51.841Z,952.51
2022-09-02T08:39:51.785Z,952.50
2022-09-02T08:40:51.822Z,952.47
2022-09-02T08:41:51.844Z,952.43
2022-09-02T08:42:52.005Z,952.45
2022-09-02T08:43:51.769Z,952.45
2022-09-02T08:44:51.745Z,952.45
2022-09-02T08:45:51.807Z,952.43
2022-09-02T08:46:51.702Z,952.43
2022-09-02T08:47:51.691Z,952.44
2022-09-02T08:48:51.714Z,952.45
2022-09-02T08:49:51.699Z,952.38
2022-09-02T08:50:51.650Z,952.39
2022-09-02T08:51:53.386Z,952.41
2022-09-02T08:52:51.639Z,952.48
2022-09-02T08:53:51.600Z,952.41
2022-09-02T08:54:51.631Z,952.43
2022-09-02T08:55:51.620Z,952.45
2022-09-02T08:56:51.571Z,952.40
2022-09-02T08:57:51.567Z,952.40
2022-09-02T08:58:51.540Z,952.41
2022-09-02T08:59:53.120Z,952.41
2022-09-02T09:00:51.599Z,952.37
2022-09-02T09:01:51.576Z,952.41
2022-09-02T09:02:51.551Z,952.39
2022-09-02T09:03:51.474Z,952.36
2022-09-02T09:04:51.493Z,952.40
2022-09-02T09:05:51.497Z,952.38
2022-09-02T09:06:51.468Z,952.33
2022-09-02T09:07:51.427Z,952.37
2022-09-02T09:08:51.421Z,952.36
2022-09-02T09:09:51.425Z,952.34
2022-09-02T09:10:51.386Z,952.35
2022-09-02T09:11:51.374Z,952.30
2022-09-02T09:12:51.382Z,952.32
2022-09-02T09:13:51.347Z,952.30
2022-09-02T09:14:51.399Z,952.30
2022-09-02T09:15:51.316Z,952.34
2022-09-02T09:16:51.365Z,952.31
2022-09-02T09:17:51.373Z,952.33
2022-09-02T09:18:51.307Z,952.33
2022-09-02T09:19:51.264Z,952.25
2022-09-02T09:20:51.245Z,952.26
2022-09-02T09:21:51.236Z,952.22
2022-09-02T09:22:51.222Z,952.21
2022-09-02T09:23:51.234Z,952.24
2022-09-02T09:24:51.202Z,952.19
2022-09-02T09:25:51.205Z,952.21
2022-09-02T09:26:51.173Z,952.22
2022-09-02T09:27:51.154Z,952.21
2022-09-02T09:28:51.237Z,952.17
2022-09-02T09:29:51.133Z,952.22
2022-09-02T09:30:51.120Z,952.19
2022-09-02T09:31:51.193Z,952.19
2022-09-02T09:32:51.141Z,952.17
2022-09-02T09:33:51.074Z,952.22
2022-09-02T09:34:51.075Z,952.17
2022-09-02T09:35:51.073Z,952.17
2022-09-02T09:36:51.106Z,952.16
2022-09-02T09:37:51.050Z,952.13
2022-09-02T09:38:51.030Z,952.15
2022-09-02T09:39:51.000Z,952.13
2022-09-02T09:40:51.086Z,952.13
2022-09-02T09:41:51.001Z,952.14
2022-09-02T09:42:51.059Z,952.08
2022-09-02T09:43:50.962Z,952.09
2022-09-02T09:44:50.932Z,952.10
2022-09-02T09:45:50.984Z,952.06
2022-09-02T09:46:50.951Z,952.11
2022-09-02T09:47:51.766Z,952.09
2022-09-02T09:48:50.911Z,952.05
2022-09-02T09:49:50.862Z,952.07
2022-09-02T09:50:50.934Z,952.04
2022-09-02T09:51:50.880Z,952.03
2022-09-02T09:52:50.855Z,952.03
2022-09-02T09:53:50.820Z,952.04
2022-09-02T09:54:50.798Z,952.02
2022-09-02T09:55:50.776Z,952.02
2022-09-02T09:56:50.764Z,952.01
2022-09-02T09:57:50.778Z,951.98
2022-09-02T09:58:50.749Z,952.03
2022-09-02T09:59:50.761Z,951.96
2022-09-02T10:00:50.786Z,952.01
2022-09-02T10:01:50.724Z,952.00
2022-09-02T10:02:50.740Z,952.04
2022-09-02T10:03:50.683Z,952.02
2022-09-02T10:04:50.666Z,952.02
2022-09-02T10:05:50.647Z,952.05
2022-09-02T10:06:50.637Z,952.03
2022-09-02T10:07:50.624Z,952.05
2022-09-02T10:08:50.649Z,951.99
2022-09-02T10:09:50.600Z,952.00
2022-09-02T10:10:50.598Z,951.98
2022-09-02T10:11:50.572Z,952.01
2022-09-02T10:12:50.555Z,951.97
2022-09-02T10:13:50.580Z,951.92
2022-09-02T10:14:50.535Z,951.87
2022-09-02T10:15:50.547Z,951.90
2022-09-02T10:16:50.585Z,951.90
2022-09-02T10:17:50.493Z,951.89
2022-09-02T10:18:50.481Z,951.96
2022-09-02T10:19:50.505Z,951.92
2022-09-02T10:21:11.394Z,951.89
2022-09-02T10:21:50.447Z,951.88
2022-09-02T10:22:59.436Z,951.83
2022-09-02T10:23:50.423Z,951.81
2022-09-02T10:24:50.392Z,951.87
2022-09-02T10:25:50.408Z,951.85
2022-09-02T10:26:50.368Z,951.86
2022-09-02T10:27:50.355Z,951.80
2022-09-02T10:28:51.828Z,951.81
2022-09-02T10:29:50.325Z,951.77
2022-09-02T10:30:50.323Z,951.74
2022-09-02T10:31:50.348Z,951.77
2022-09-02T10:32:50.291Z,951.72
2022-09-02T10:33:50.311Z,951.74
2022-09-02T10:34:50.263Z,951.72
2022-09-02T10:35:50.252Z,951.72
2022-09-02T10:36:50.386Z,951.76
2022-09-02T10:37:50.267Z,951.73
2022-09-02T10:38:50.213Z,951.73
2022-09-02T10:39:50.197Z,951.69
2022-09-02T10:40:50.280Z,951.71
2022-09-02T10:41:50.186Z,951.71
2022-09-02T10:42:50.262Z,951.69
2022-09-02T10:43:50.200Z,951.72
2022-09-02T10:44:50.139Z,951.71
2022-09-02T10:45:50.214Z,951.67
2022-09-02T10:46:50.137Z,951.68
2022-09-02T10:47:53.176Z,951.65
2022-09-02T10:48:50.083Z,951.61
2022-09-02T10:49:50.095Z,951.68
2022-09-02T10:50:50.318Z,951.58
2022-09-02T10:51:50.044Z,951.61
2022-09-02T10:52:50.058Z,951.63
2022-09-02T10:53:50.026Z,951.59
2022-09-02T10:54:49.997Z,951.58
2022-09-02T10:55:49.990Z,951.58
2022-09-02T10:56:50.039Z,951.64
2022-09-02T10:57:49.989Z,951.61
2022-09-02T10:58:50.042Z,951.57
2022-09-02T10:59:49.935Z,951.56
2022-09-02T11:00:49.976Z,951.53
2022-09-02T11:01:49.916Z,951.52
2022-09-02T11:02:49.936Z,951.51
2022-09-02T11:03:50.087Z,951.55
2022-09-02T11:04:49.878Z,951.45
2022-09-02T11:05:49.860Z,951.48
2022-09-02T11:07:02.653Z,951.45
2022-09-02T11:07:49.875Z,951.50
2022-09-02T11:08:49.826Z,951.47
2022-09-02T11:09:49.803Z,951.45
2022-09-02T11:10:49.797Z,951.42
2022-09-02T11:11:49.796Z,951.36
2022-09-02T11:12:49.807Z,951.43
2022-09-02T11:13:49.762Z,951.43
2022-09-02T11:14:49.773Z,951.44
2022-09-02T11:15:49.811Z,951.38
2022-09-02T11:16:49.733Z,951.47
2022-09-02T11:17:49.716Z,951.47
2022-09-02T11:18:49.729Z,951.47
2022-09-02T11:19:49.755Z,951.42
2022-09-02T11:20:49.689Z,951.40
2022-09-02T11:21:49.652Z,951.42
2022-09-02T11:22:49.632Z,951.40
2022-09-02T11:23:49.630Z,951.39
2022-09-02T11:24:49.631Z,951.34
2022-09-02T11:25:49.624Z,951.37
2022-09-02T11:26:49.576Z,951.34
2022-09-02T11:27:49.587Z,951.37
2022-09-02T11:28:49.564Z,951.31
2022-09-02T11:29:49.558Z,951.34
2022-09-02T11:30:49.560Z,951.34
2022-09-02T11:31:49.530Z,951.31
2022-09-02T11:32:49.514Z,951.28
2022-09-02T11:33:49.583Z,951.33
2022-09-02T11:34:49.480Z,951.31
2022-09-02T11:35:49.501Z,951.33
2022-09-02T11:36:49.464Z,951.32
2022-09-02T11:37:49.453Z,951.31
2022-09-02T11:38:49.449Z,951.33
2022-09-02T11:39:56.510Z,951.30
2022-09-02T11:41:32.106Z,951.23
2022-09-02T11:41:49.433Z,951.26
2022-09-02T11:42:49.374Z,951.23
2022-09-02T11:43:49.465Z,951.30
2022-09-02T11:44:52.739Z,951.28
2022-09-02T11:45:49.384Z,951.28
2022-09-02T11:46:49.401Z,951.30
2022-09-02T11:47:49.314Z,951.30
2022-09-02T11:48:49.292Z,951.28
2022-09-02T11:49:49.360Z,951.29
2022-09-02T11:50:49.276Z,951.28
2022-09-02T11:51:49.276Z,951.30
2022-09-02T11:52:49.277Z,951.30
2022-09-02T11:53:49.289Z,951.30
2022-09-02T11:54:49.293Z,951.31
2022-09-02T11:55:49.257Z,951.29
2022-09-02T11:56:49.227Z,951.26
2022-09-02T11:57:49.206Z,951.26
2022-09-02T11:58:49.169Z,951.30
2022-09-02T11:59:49.166Z,951.24
2022-09-02T12:00:49.165Z,951.24
2022-09-02T12:01:49.178Z,951.25
2022-09-02T12:02:49.150Z,951.20
2022-09-02T12:04:16.150Z,951.21
2022-09-02T12:04:59.955Z,951.23
2022-09-02T12:05:49.224Z,951.19
2022-09-02T12:06:49.206Z,951.22
2022-09-02T12:07:49.070Z,951.20
2022-09-02T12:08:49.075Z,951.19
2022-09-02T12:09:49.041Z,951.19
2022-09-02T12:10:49.027Z,951.17
2022-09-02T12:11:49.009Z,951.19
2022-09-02T12:12:51.839Z,951.18
2022-09-02T12:14:48.992Z,951.16
2022-09-02T12:15:49.020Z,951.13
2022-09-02T12:16:48.941Z,951.12
2022-09-02T12:17:48.950Z,951.11
2022-09-02T12:18:48.927Z,951.12
2022-09-02T12:19:48.905Z,951.14
2022-09-02T12:20:51.385Z,951.16
2022-09-02T12:21:48.881Z,951.18
2022-09-02T12:22:48.913Z,951.17
2022-09-02T12:23:48.868Z,951.18
2022-09-02T12:24:48.845Z,951.17
2022-09-02T12:25:48.846Z,951.12
2022-09-02T12:26:48.874Z,951.16
2022-09-02T12:27:48.807Z,951.16
2022-09-02T12:28:48.813Z,951.21
2022-09-02T12:29:48.779Z,951.18
2022-09-02T12:30:48.797Z,951.17